Time;durP1;ratioP1;P1;durP2;ratioP2;P2;SDS_P1;SDS_P2;PMS_P1;PMS_P2;Temp;Humidity;BMP_temperature;BMP_pressure;BME280_temperature;BME280_humidity;BME280_pressure;Samples;Min_cycle;Max_cycle;Signal;HPM_P1;HPM_P2
2023/01/29 00:02:24;;;;;;;33.53;22.07;;;2.50;89.60;;;;;;5040170;28;20538;-63
2023/01/29 00:04:52;;;;;;;37.63;21.23;;;2.50;89.60;;;;;;5031631;28;20212;-66
2023/01/29 00:07:22;;;;;;;34.37;20.63;;;2.50;89.70;;;;;;5035759;28;20748;-64
2023/01/29 00:09:49;;;;;;;36.80;20.77;;;2.50;89.60;;;;;;5031536;28;20214;-64
2023/01/29 00:12:16;;;;;;;37.60;21.63;;;2.50;89.50;;;;;;5032875;28;20208;-63
2023/01/29 00:14:43;;;;;;;40.20;21.07;;;2.50;89.50;;;;;;5037128;28;20664;-64
2023/01/29 00:17:10;;;;;;;36.70;21.20;;;2.50;90.10;;;;;;5036220;28;20200;-64
2023/01/29 00:19:38;;;;;;;33.97;21.40;;;2.60;90.00;;;;;;5025391;28;20548;-64
2023/01/29 00:22:05;;;;;;;34.87;20.77;;;2.60;90.10;;;;;;5041359;28;20209;-63
2023/01/29 00:24:31;;;;;;;34.47;21.07;;;2.60;90.10;;;;;;5037444;28;20210;-63
2023/01/29 00:26:59;;;;;;;35.47;20.60;;;2.70;90.20;;;;;;5033768;28;20205;-63
2023/01/29 00:29:26;;;;;;;35.07;20.60;;;2.70;90.20;;;;;;5032717;28;20212;-63
2023/01/29 00:31:53;;;;;;;33.17;19.63;;;2.80;90.30;;;;;;5039582;28;20282;-64
2023/01/29 00:34:21;;;;;;;37.63;20.10;;;2.80;90.30;;;;;;5034474;28;20212;-64
2023/01/29 00:36:49;;;;;;;30.77;19.13;;;2.90;90.40;;;;;;5052060;28;20563;-63
2023/01/29 00:39:16;;;;;;;37.40;20.83;;;2.90;90.40;;;;;;5028014;28;20589;-63
2023/01/29 00:47:32;;;;;;;35.50;18.77;;;3.00;90.40;;;;;;5034504;28;20206;-64
2023/01/29 00:50:00;;;;;;;40.43;19.80;;;3.00;90.10;;;;;;5037412;28;20209;-64
2023/01/29 00:52:28;;;;;;;30.73;18.27;;;3.00;90.20;;;;;;5034903;28;20285;-64
2023/01/29 00:54:58;;;;;;;27.43;17.63;;;3.00;90.20;;;;;;5035591;28;20272;-64
2023/01/29 00:57:27;;;;;;;33.73;18.77;;;3.00;90.20;;;;;;5032650;28;20209;-63
2023/01/29 00:59:54;;;;;;;32.27;17.90;;;3.00;90.20;;;;;;5034477;28;20627;-63
2023/01/29 01:05:12;;;;;;;35.50;18.57;;;2.90;90.20;;;;;;5032655;28;20212;-64
2023/01/29 01:07:40;;;;;;;29.03;18.07;;;2.90;90.20;;;;;;5034100;28;20225;-63
2023/01/29 01:10:23;;;;;;;30.27;18.40;;;2.90;90.20;;;;;;5042017;28;20312;-64
2023/01/29 01:13:05;;;;;;;37.07;19.40;;;2.90;90.30;;;;;;5031724;28;20219;-64
2023/01/29 01:15:37;;;;;;;32.63;18.87;;;2.90;90.30;;;;;;5040689;28;20307;-64
2023/01/29 01:18:05;;;;;;;32.20;17.83;;;2.80;90.20;;;;;;5039718;28;20205;-64
2023/01/29 01:20:34;;;;;;;33.33;18.30;;;2.80;90.30;;;;;;5037197;28;20212;-64
2023/01/29 01:23:02;;;;;;;30.83;17.40;;;2.80;90.30;;;;;;5033062;28;20211;-64
2023/01/29 01:25:29;;;;;;;27.70;16.60;;;2.80;90.20;;;;;;5040301;28;20201;-63
2023/01/29 01:27:58;;;;;;;28.00;17.07;;;2.80;90.10;;;;;;5034838;28;20203;-63
2023/01/29 01:30:25;;;;;;;29.97;18.30;;;2.80;90.10;;;;;;5032758;28;20576;-64
2023/01/29 01:32:52;;;;;;;31.40;17.80;;;2.70;90.00;;;;;;5041681;28;20204;-64
2023/01/29 01:35:19;;;;;;;28.03;16.67;;;2.70;90.10;;;;;;5034408;28;20687;-63
2023/01/29 01:37:46;;;;;;;29.53;17.47;;;2.70;90.10;;;;;;5035292;28;20645;-63
2023/01/29 01:40:19;;;;;;;24.70;16.23;;;2.70;90.10;;;;;;5041992;28;20270;-63
2023/01/29 01:42:48;;;;;;;32.00;17.70;;;2.70;90.10;;;;;;5039180;28;20194;-63
2023/01/29 01:45:34;;;;;;;32.30;17.63;;;2.70;90.10;;;;;;5039798;28;20252;-64
2023/01/29 01:48:13;;;;;;;29.53;17.20;;;2.70;90.10;;;;;;5034570;28;20214;-63
2023/01/29 01:50:49;;;;;;;28.80;17.80;;;2.60;90.00;;;;;;5034875;28;20198;-63
2023/01/29 01:53:27;;;;;;;30.40;16.73;;;2.60;90.10;;;;;;5038720;28;20213;-63
2023/01/29 01:56:02;;;;;;;25.03;16.83;;;2.60;90.10;;;;;;5035639;28;20673;-63
2023/01/29 01:58:34;;;;;;;25.60;16.17;;;2.60;90.10;;;;;;5023952;28;20205;-63
2023/01/29 02:01:05;;;;;;;28.87;17.10;;;2.50;90.00;;;;;;5038924;28;20201;-63
2023/01/29 02:09:37;;;;;;;28.10;16.00;;;2.40;90.10;;;;;;5039885;28;20195;-63
2023/01/29 02:12:07;;;;;;;26.40;16.77;;;2.30;90.20;;;;;;5038594;28;20283;-63
2023/01/29 02:14:38;;;;;;;28.53;17.07;;;2.30;90.10;;;;;;5037010;28;20238;-63
2023/01/29 02:17:08;;;;;;;28.00;15.77;;;2.30;90.20;;;;;;5038222;28;20202;-63
2023/01/29 02:19:44;;;;;;;37.23;18.47;;;2.20;90.20;;;;;;5037682;28;20636;-64
2023/01/29 02:22:15;;;;;;;28.03;17.27;;;2.20;90.20;;;;;;5036310;28;20194;-63
2023/01/29 02:25:08;;;;;;;29.93;17.17;;;2.10;90.30;;;;;;5031571;28;20194;-64
2023/01/29 02:27:48;;;;;;;29.40;17.90;;;2.10;90.20;;;;;;5039614;28;20197;-63
2023/01/29 02:30:37;;;;;;;28.23;17.50;;;2.00;90.20;;;;;;5029364;28;20206;-63
2023/01/29 02:33:21;;;;;;;30.17;18.23;;;2.00;90.30;;;;;;5038147;28;20276;-63
2023/01/29 02:35:51;;;;;;;32.70;18.20;;;2.00;90.30;;;;;;5026955;28;20249;-63
2023/01/29 02:38:33;;;;;;;30.20;17.43;;;1.90;90.40;;;;;;5034382;28;20211;-63
2023/01/29 02:41:14;;;;;;;36.97;18.97;;;1.90;90.40;;;;;;5042379;28;20214;-63
2023/01/29 02:44:02;;;;;;;32.77;18.50;;;1.90;90.50;;;;;;5034911;28;20229;-63
2023/01/29 02:46:56;;;;;;;31.60;17.33;;;1.90;90.60;;;;;;5028168;28;20200;-64
2023/01/29 02:49:44;;;;;;;31.50;19.10;;;1.90;90.60;;;;;;5040144;28;20224;-63
2023/01/29 02:52:27;;;;;;;34.63;19.47;;;1.80;90.70;;;;;;5045447;28;20570;-64
2023/01/29 02:55:20;;;;;;;35.77;19.63;;;1.80;90.70;;;;;;5023294;28;20226;-63
2023/01/29 02:57:52;;;;;;;33.07;20.10;;;1.80;90.80;;;;;;5043430;28;20239;-63
2023/01/29 03:00:32;;;;;;;28.00;18.00;;;1.80;90.80;;;;;;5031105;28;20230;-63
2023/01/29 03:03:08;;;;;;;31.97;19.10;;;1.70;90.70;;;;;;5039837;28;20265;-63
2023/01/29 03:05:55;;;;;;;35.90;19.10;;;1.70;90.80;;;;;;5039991;28;20503;-63
2023/01/29 03:09:09;;;;;;;31.60;19.57;;;1.70;90.90;;;;;;5022277;28;20555;-63
2023/01/29 03:11:41;;;;;;;32.63;18.77;;;1.70;91.00;;;;;;5037142;28;20199;-63
2023/01/29 03:14:13;;;;;;;37.47;21.10;;;1.70;90.90;;;;;;5024149;28;20208;-63
2023/01/29 03:16:48;;;;;;;33.27;20.20;;;1.60;90.90;;;;;;5033526;28;20197;-63
2023/01/29 03:19:17;;;;;;;30.03;18.77;;;1.60;91.00;;;;;;5037816;28;20206;-63
2023/01/29 03:21:59;;;;;;;38.23;21.77;;;1.60;91.00;;;;;;5038880;28;20298;-63
2023/01/29 03:33:57;;;;;;;30.90;18.70;;;1.60;91.10;;;;;;5053971;28;20203;-63
2023/01/29 03:36:44;;;;;;;32.30;20.40;;;1.60;91.00;;;;;;5032280;28;20536;-63
2023/01/29 03:39:14;;;;;;;35.93;21.90;;;1.60;91.00;;;;;;5030614;28;20294;-64
2023/01/29 03:41:56;;;;;;;39.43;21.13;;;1.60;90.90;;;;;;5048545;28;20686;-63
2023/01/29 03:44:39;;;;;;;38.37;21.40;;;1.50;90.90;;;;;;5018725;28;20253;-64
2023/01/29 03:47:36;;;;;;;33.63;20.33;;;1.50;91.00;;;;;;5004564;28;20206;-63
2023/01/29 03:50:28;;;;;;;37.20;20.73;;;1.40;91.10;;;;;;5025957;28;20208;-63
2023/01/29 03:53:42;;;;;;;38.50;21.17;;;1.40;91.10;;;;;;5034878;28;20618;-64
2023/01/29 03:56:30;;;;;;;35.20;21.07;;;1.40;91.10;;;;;;5011006;28;20221;-63
2023/01/29 03:59:12;;;;;;;34.63;21.23;;;1.40;91.20;;;;;;5032933;28;20201;-63
2023/01/29 04:02:26;;;;;;;37.70;22.43;;;1.30;91.30;;;;;;5018291;28;20229;-64
2023/01/29 04:05:00;;;;;;;35.67;19.50;;;1.30;91.30;;;;;;5034722;28;20218;-63
2023/01/29 04:07:32;;;;;;;33.13;19.57;;;1.30;91.20;;;;;;5036670;28;20215;-64
2023/01/29 04:10:08;;;;;;;30.20;20.40;;;1.30;91.10;;;;;;5031917;28;20209;-64
2023/01/29 04:12:54;;;;;;;39.27;21.63;;;1.30;91.20;;;;;;5037699;28;20618;-63
2023/01/29 04:15:22;;;;;;;42.50;21.17;;;1.20;91.30;;;;;;5037301;28;20561;-63
2023/01/29 04:17:52;;;;;;;40.47;21.17;;;1.20;91.40;;;;;;5030676;28;20589;-64
2023/01/29 04:20:32;;;;;;;37.20;21.23;;;1.20;91.50;;;;;;5035894;28;20229;-63
2023/01/29 04:22:59;;;;;;;38.07;20.50;;;1.30;91.60;;;;;;5036480;28;20518;-63
2023/01/29 04:25:31;;;;;;;32.77;21.17;;;1.30;91.60;;;;;;5035656;28;20369;-63
2023/01/29 04:28:12;;;;;;;29.23;19.57;;;1.20;91.60;;;;;;5035191;28;20314;-64
2023/01/29 04:31:05;;;;;;;32.93;19.80;;;1.20;91.60;;;;;;5034409;28;20220;-63
2023/01/29 04:33:54;;;;;;;37.33;19.60;;;1.20;91.60;;;;;;5034222;28;20199;-63
2023/01/29 04:36:24;;;;;;;40.60;21.07;;;1.20;91.60;;;;;;5037368;28;20690;-63
2023/01/29 04:39:19;;;;;;;34.43;19.23;;;1.10;91.60;;;;;;5023389;28;20223;-64
2023/01/29 04:41:52;;;;;;;36.70;20.03;;;1.10;91.60;;;;;;5035397;28;20500;-63
2023/01/29 04:44:22;;;;;;;37.47;20.80;;;1.10;91.50;;;;;;5035685;28;20203;-64
2023/01/29 04:47:04;;;;;;;34.73;20.37;;;1.10;91.50;;;;;;5030120;28;20206;-64
2023/01/29 04:49:44;;;;;;;32.10;19.97;;;1.10;91.50;;;;;;5039463;28;20262;-63
2023/01/29 04:52:35;;;;;;;38.03;20.57;;;1.10;91.50;;;;;;5035191;28;20195;-63
2023/01/29 04:55:20;;;;;;;35.17;19.70;;;1.00;91.50;;;;;;5031704;28;20279;-63
2023/01/29 04:58:03;;;;;;;37.37;19.57;;;1.00;91.60;;;;;;5038428;28;20632;-64
2023/01/29 05:00:34;;;;;;;34.03;21.83;;;1.00;91.70;;;;;;5039216;28;20207;-63
2023/01/29 05:03:02;;;;;;;32.10;20.63;;;1.00;91.70;;;;;;5024418;28;20235;-63
2023/01/29 05:05:30;;;;;;;34.27;20.20;;;1.00;91.70;;;;;;5035968;28;20204;-64
2023/01/29 05:07:58;;;;;;;32.33;19.47;;;1.00;91.80;;;;;;5045577;28;20210;-64
2023/01/29 05:10:25;;;;;;;38.83;18.13;;;1.00;91.80;;;;;;5033066;28;20208;-63
2023/01/29 05:13:00;;;;;;;38.30;19.00;;;1.00;91.80;;;;;;5038393;28;20587;-63
2023/01/29 05:15:39;;;;;;;33.80;19.43;;;1.00;91.80;;;;;;5040919;28;20211;-63
2023/01/29 05:18:07;;;;;;;30.37;19.20;;;1.00;91.80;;;;;;5038233;28;20197;-63
2023/01/29 05:20:42;;;;;;;32.10;19.93;;;1.00;91.80;;;;;;5037407;28;20647;-63
2023/01/29 05:23:20;;;;;;;35.60;19.40;;;1.00;91.90;;;;;;5041524;28;20540;-64
2023/01/29 05:25:49;;;;;;;34.93;19.33;;;1.00;91.90;;;;;;5037779;28;20538;-63
2023/01/29 05:28:16;;;;;;;35.57;20.70;;;1.00;91.90;;;;;;5036432;28;20557;-63
2023/01/29 05:30:48;;;;;;;38.17;20.30;;;1.00;91.80;;;;;;5038995;28;20208;-63
2023/01/29 05:33:33;;;;;;;34.00;20.67;;;1.00;91.80;;;;;;5034154;28;20209;-64
2023/01/29 05:36:00;;;;;;;32.20;20.57;;;1.00;91.90;;;;;;5038320;28;20213;-65
2023/01/29 05:38:27;;;;;;;34.03;19.27;;;1.00;91.80;;;;;;5044712;28;20268;-65
2023/01/29 05:40:57;;;;;;;37.97;20.17;;;1.00;91.80;;;;;;5032013;28;20204;-64
2023/01/29 05:43:25;;;;;;;39.07;20.07;;;1.00;91.80;;;;;;5039852;28;20214;-63
2023/01/29 05:45:57;;;;;;;34.37;19.53;;;0.90;91.80;;;;;;5039782;28;20211;-63
2023/01/29 05:48:27;;;;;;;37.53;19.10;;;0.90;91.90;;;;;;5039694;28;20201;-63
2023/01/29 05:51:02;;;;;;;38.40;22.33;;;0.90;91.90;;;;;;5037844;28;20635;-64
2023/01/29 05:53:30;;;;;;;32.43;19.03;;;0.90;91.80;;;;;;5040355;28;20232;-63
2023/01/29 05:56:00;;;;;;;32.93;20.20;;;0.90;91.70;;;;;;5036170;28;20280;-64
2023/01/29 05:58:29;;;;;;;34.17;20.80;;;0.80;91.80;;;;;;5034239;28;20776;-63
2023/01/29 06:00:56;;;;;;;34.73;19.33;;;0.80;91.80;;;;;;5036490;28;20629;-63
2023/01/29 06:03:23;;;;;;;36.07;19.60;;;0.80;91.80;;;;;;5034964;28;20237;-63
2023/01/29 06:05:50;;;;;;;36.13;20.40;;;0.80;91.80;;;;;;5030390;28;20211;-64
2023/01/29 06:08:17;;;;;;;33.93;20.30;;;0.80;91.80;;;;;;5039605;28;20207;-63
2023/01/29 06:10:44;;;;;;;38.20;20.43;;;0.80;91.90;;;;;;5044192;28;20199;-63
2023/01/29 06:13:11;;;;;;;32.80;19.80;;;0.80;91.90;;;;;;5039983;28;20203;-64
2023/01/29 06:15:39;;;;;;;32.27;20.40;;;0.80;92.00;;;;;;5040248;28;20248;-63
2023/01/29 06:18:07;;;;;;;36.70;20.10;;;0.80;92.00;;;;;;5040281;28;20207;-64
2023/01/29 06:20:34;;;;;;;33.07;19.20;;;0.80;92.00;;;;;;5031274;28;20208;-63
2023/01/29 06:23:01;;;;;;;34.17;20.57;;;0.80;92.00;;;;;;5038626;28;20200;-64
2023/01/29 06:25:28;;;;;;;34.33;20.33;;;0.70;92.00;;;;;;5038907;28;20206;-64
2023/01/29 06:27:55;;;;;;;38.17;20.00;;;0.80;92.00;;;;;;5032483;28;20205;-64
2023/01/29 06:30:25;;;;;;;31.60;19.97;;;0.80;92.00;;;;;;5034334;28;20220;-64
2023/01/29 06:32:57;;;;;;;32.87;20.17;;;0.70;92.00;;;;;;5041123;28;20201;-64
2023/01/29 06:35:24;;;;;;;31.80;19.03;;;0.70;92.00;;;;;;5033184;28;20222;-63
2023/01/29 06:37:52;;;;;;;36.53;20.90;;;0.70;92.00;;;;;;5041425;28;20212;-63
2023/01/29 06:40:19;;;;;;;41.03;21.50;;;0.70;92.00;;;;;;5036172;28;20206;-64
2023/01/29 06:42:46;;;;;;;36.13;20.63;;;0.70;92.00;;;;;;5040244;28;20693;-64
2023/01/29 06:45:13;;;;;;;32.87;18.80;;;0.70;92.00;;;;;;5038482;28;20239;-64
2023/01/29 06:47:40;;;;;;;33.80;19.40;;;0.70;92.00;;;;;;5036490;28;20191;-64
2023/01/29 06:50:07;;;;;;;36.40;20.17;;;0.70;92.00;;;;;;5036056;28;20188;-63
2023/01/29 06:52:34;;;;;;;35.90;20.00;;;0.80;92.00;;;;;;5034592;28;20204;-64
2023/01/29 06:55:02;;;;;;;33.27;19.80;;;0.70;92.10;;;;;;5037504;28;20204;-64
2023/01/29 06:57:29;;;;;;;38.50;21.00;;;0.80;92.20;;;;;;5038197;28;20218;-63
2023/01/29 06:59:56;;;;;;;37.93;20.40;;;0.90;92.10;;;;;;5033114;28;20251;-64
2023/01/29 07:02:23;;;;;;;34.40;20.10;;;0.90;91.90;;;;;;5036720;28;20191;-63
2023/01/29 07:04:50;;;;;;;39.07;21.23;;;1.00;91.80;;;;;;5034296;28;20204;-64
2023/01/29 07:07:17;;;;;;;36.90;20.07;;;1.00;91.70;;;;;;5042420;28;20219;-64
2023/01/29 07:09:44;;;;;;;39.17;21.13;;;1.10;91.70;;;;;;5034607;28;20223;-64
2023/01/29 07:12:11;;;;;;;35.33;19.57;;;1.10;91.80;;;;;;5040899;28;20205;-64
2023/01/29 07:14:38;;;;;;;36.87;19.40;;;1.20;91.90;;;;;;5036297;28;20197;-63
2023/01/29 07:17:05;;;;;;;35.30;20.00;;;1.30;91.80;;;;;;5031952;28;20215;-65
2023/01/29 07:19:32;;;;;;;33.10;18.90;;;1.40;91.50;;;;;;5037496;28;20325;-64
2023/01/29 07:22:01;;;;;;;34.10;18.10;;;1.60;91.30;;;;;;5027948;28;20650;-64
2023/01/29 07:24:28;;;;;;;25.83;17.23;;;1.80;90.90;;;;;;5036672;28;20673;-64
2023/01/29 07:26:55;;;;;;;33.40;19.03;;;2.00;90.70;;;;;;5034778;28;20260;-64
2023/01/29 07:29:22;;;;;;;32.43;19.53;;;2.10;90.30;;;;;;5039896;28;20195;-63
2023/01/29 07:31:50;;;;;;;33.33;19.20;;;2.20;89.90;;;;;;5040037;28;20222;-64
2023/01/29 07:34:17;;;;;;;28.70;18.43;;;2.20;89.80;;;;;;5036284;28;20213;-64
2023/01/29 07:36:44;;;;;;;26.77;17.63;;;2.20;90.00;;;;;;5040195;28;20255;-64
2023/01/29 07:39:11;;;;;;;34.07;18.80;;;2.10;90.10;;;;;;5033229;28;20205;-64
2023/01/29 07:41:38;;;;;;;32.77;18.17;;;2.10;90.30;;;;;;5018251;28;20205;-63
2023/01/29 07:44:14;;;;;;;30.83;19.27;;;2.10;90.50;;;;;;5030058;28;20538;-63
2023/01/29 07:46:41;;;;;;;37.43;20.37;;;2.10;90.60;;;;;;5034478;28;20454;-64
2023/01/29 07:49:08;;;;;;;33.43;19.67;;;2.10;90.80;;;;;;5041017;28;20196;-63
2023/01/29 07:51:35;;;;;;;35.83;18.90;;;2.20;90.90;;;;;;5037325;28;20600;-64
2023/01/29 07:54:02;;;;;;;30.83;18.87;;;2.20;90.90;;;;;;5030502;28;20598;-64
2023/01/29 07:56:29;;;;;;;33.90;18.73;;;2.30;90.90;;;;;;5039268;28;20677;-64
2023/01/29 07:58:56;;;;;;;28.03;18.30;;;2.40;90.90;;;;;;5039762;28;20211;-64
2023/01/29 08:01:23;;;;;;;33.43;19.70;;;2.50;90.90;;;;;;5030613;28;20295;-64
2023/01/29 08:03:50;;;;;;;32.67;19.13;;;2.50;90.80;;;;;;5030909;28;20351;-64
2023/01/29 08:06:18;;;;;;;35.67;19.30;;;2.60;90.70;;;;;;5033608;28;20275;-64
2023/01/29 08:08:45;;;;;;;31.93;18.27;;;2.70;90.70;;;;;;5033406;28;20260;-64
2023/01/29 08:11:12;;;;;;;29.70;18.53;;;2.80;90.60;;;;;;5036077;28;20193;-64
2023/01/29 08:13:39;;;;;;;30.93;19.00;;;2.90;90.50;;;;;;5035500;28;20203;-65
2023/01/29 08:16:07;;;;;;;31.80;19.90;;;3.00;90.40;;;;;;5032501;28;20650;-64
2023/01/29 08:18:36;;;;;;;29.33;18.17;;;3.00;90.30;;;;;;5037295;28;20258;-64
2023/01/29 08:21:03;;;;;;;28.37;18.47;;;3.10;90.20;;;;;;5032907;28;20209;-64
2023/01/29 08:23:30;;;;;;;27.63;17.17;;;3.10;90.10;;;;;;5037989;28;20708;-63
2023/01/29 08:25:57;;;;;;;28.10;17.23;;;3.20;90.10;;;;;;5037515;28;20209;-64
2023/01/29 08:28:24;;;;;;;27.27;17.90;;;3.30;90.10;;;;;;5042192;28;20216;-64
2023/01/29 08:30:51;;;;;;;29.90;17.67;;;3.30;89.90;;;;;;5031877;28;20267;-63
2023/01/29 08:33:19;;;;;;;27.57;17.77;;;3.40;89.70;;;;;;5037935;28;20252;-64
2023/01/29 08:35:59;;;;;;;28.17;17.87;;;3.40;89.50;;;;;;5037260;28;20231;-64
2023/01/29 08:38:26;;;;;;;38.13;18.67;;;3.50;89.50;;;;;;5037105;28;20197;-63
2023/01/29 08:40:53;;;;;;;32.70;18.90;;;3.60;89.50;;;;;;5039598;28;20206;-64
2023/01/29 08:43:20;;;;;;;28.10;17.30;;;3.70;89.50;;;;;;5035786;28;20217;-63
2023/01/29 08:45:47;;;;;;;34.07;18.70;;;3.80;89.50;;;;;;5036174;28;20200;-63
2023/01/29 08:48:14;;;;;;;29.53;17.67;;;3.90;89.20;;;;;;5039730;28;20220;-63
2023/01/29 08:50:41;;;;;;;29.43;18.47;;;4.00;89.00;;;;;;5041313;28;20573;-63
2023/01/29 08:53:08;;;;;;;31.57;17.87;;;4.10;88.80;;;;;;5041201;28;20212;-64
2023/01/29 08:55:40;;;;;;;33.37;19.07;;;4.20;88.60;;;;;;5040011;28;20194;-63
2023/01/29 08:58:09;;;;;;;29.40;18.07;;;4.30;88.40;;;;;;5041675;28;20521;-64
2023/01/29 09:00:37;;;;;;;30.77;19.37;;;4.50;88.20;;;;;;5040872;28;20636;-64
2023/01/29 09:03:06;;;;;;;31.70;19.37;;;4.60;88.00;;;;;;5038688;28;20253;-63
2023/01/29 09:05:38;;;;;;;29.13;18.47;;;4.70;87.70;;;;;;5040687;28;20229;-64
2023/01/29 09:08:07;;;;;;;34.23;18.00;;;4.80;86.90;;;;;;5037867;28;20676;-63
2023/01/29 09:10:34;;;;;;;30.50;19.27;;;4.80;86.40;;;;;;5040037;28;20295;-63
2023/01/29 09:13:02;;;;;;;30.27;19.27;;;4.90;86.30;;;;;;5033440;28;20202;-64
2023/01/29 09:15:29;;;;;;;30.37;19.67;;;5.00;86.40;;;;;;5040916;28;20285;-64
2023/01/29 09:17:56;;;;;;;31.73;19.97;;;5.10;86.90;;;;;;5042270;28;20601;-64
2023/01/29 09:20:23;;;;;;;30.13;20.00;;;5.30;86.40;;;;;;5043184;28;20257;-63
2023/01/29 09:22:52;;;;;;;29.07;18.13;;;5.40;85.70;;;;;;5037844;28;20289;-64
2023/01/29 09:25:19;;;;;;;29.33;18.93;;;5.50;84.80;;;;;;5040310;28;20208;-64
2023/01/29 09:27:46;;;;;;;33.27;19.97;;;5.50;84.40;;;;;;5039416;28;20289;-63
2023/01/29 09:30:13;;;;;;;30.03;19.87;;;5.50;84.20;;;;;;5037746;28;20214;-64
2023/01/29 09:32:41;;;;;;;30.53;18.97;;;5.60;84.60;;;;;;5033350;28;20207;-64
2023/01/29 09:35:23;;;;;;;29.90;18.50;;;5.60;84.50;;;;;;5036443;28;20281;-64
2023/01/29 09:37:50;;;;;;;27.97;17.27;;;5.70;84.50;;;;;;5036842;28;20660;-64
2023/01/29 09:40:42;;;;;;;30.27;18.60;;;5.80;84.60;;;;;;5027048;28;20195;-64
2023/01/29 09:43:36;;;;;;;29.83;19.10;;;5.90;84.60;;;;;;5036400;28;20282;-64
2023/01/29 09:46:26;;;;;;;28.57;18.13;;;6.10;84.40;;;;;;5030151;28;20543;-64
2023/01/29 09:49:03;;;;;;;29.00;18.13;;;6.20;84.20;;;;;;5044183;28;20253;-64
2023/01/29 09:51:37;;;;;;;31.60;18.63;;;6.30;84.00;;;;;;5041099;28;20205;-64
2023/01/29 09:54:31;;;;;;;26.67;17.77;;;6.40;83.80;;;;;;5043597;28;20276;-64
2023/01/29 09:56:59;;;;;;;30.90;17.87;;;6.50;82.60;;;;;;5039143;28;20226;-64
2023/01/29 09:59:29;;;;;;;27.57;16.77;;;6.50;81.90;;;;;;5034780;28;20579;-64
2023/01/29 10:02:32;;;;;;;26.53;16.97;;;6.50;80.10;;;;;;5035763;28;20210;-64
2023/01/29 10:05:11;;;;;;;32.27;18.97;;;6.40;79.80;;;;;;4997884;28;20207;-64
2023/01/29 10:08:04;;;;;;;25.60;17.03;;;6.40;80.70;;;;;;5037683;28;20266;-64
2023/01/29 10:10:54;;;;;;;28.33;17.13;;;6.40;81.20;;;;;;5039162;28;20218;-64
2023/01/29 10:13:46;;;;;;;27.40;17.90;;;6.50;81.60;;;;;;5037069;28;20634;-63
2023/01/29 10:16:31;;;;;;;29.10;19.57;;;6.60;81.50;;;;;;5035893;28;20286;-64
2023/01/29 10:19:12;;;;;;;29.20;18.10;;;6.70;81.50;;;;;;5039563;28;20199;-64
2023/01/29 10:21:45;;;;;;;31.13;20.23;;;6.90;81.60;;;;;;5037075;28;20639;-64
2023/01/29 10:24:22;;;;;;;25.90;17.00;;;7.00;81.10;;;;;;5041721;28;20211;-64
2023/01/29 10:26:51;;;;;;;29.20;18.40;;;7.00;80.90;;;;;;5034175;28;20198;-63
2023/01/29 10:29:20;;;;;;;24.90;16.10;;;7.10;81.10;;;;;;5037298;28;20203;-64
2023/01/29 10:32:13;;;;;;;32.33;19.43;;;7.20;80.90;;;;;;5040205;28;20210;-63
2023/01/29 10:34:44;;;;;;;25.53;15.77;;;7.30;80.60;;;;;;5027675;28;20228;-64
2023/01/29 10:37:23;;;;;;;28.33;17.47;;;7.40;80.50;;;;;;5033120;28;20211;-64
2023/01/29 10:39:50;;;;;;;30.30;18.40;;;7.50;79.90;;;;;;5046812;28;20223;-64
2023/01/29 10:42:41;;;;;;;31.57;17.43;;;7.50;79.90;;;;;;5038714;28;20203;-64
2023/01/29 10:45:49;;;;;;;28.00;17.30;;;7.60;79.70;;;;;;5036969;28;20212;-64
2023/01/29 10:48:45;;;;;;;25.37;16.57;;;7.70;79.20;;;;;;5038010;28;20202;-63
2023/01/29 10:51:41;;;;;;;27.73;17.67;;;7.80;79.10;;;;;;5030263;28;20206;-63
2023/01/29 10:54:31;;;;;;;28.77;17.67;;;7.80;78.60;;;;;;5037881;28;20199;-64
2023/01/29 10:57:21;;;;;;;24.30;17.00;;;7.90;77.60;;;;;;5032630;28;20229;-67
2023/01/29 11:00:25;;;;;;;29.33;17.10;;;7.90;77.30;;;;;;5035984;28;20199;-64
2023/01/29 11:02:52;;;;;;;26.10;18.17;;;8.00;77.10;;;;;;5039260;28;20288;-64
2023/01/29 11:05:29;;;;;;;31.40;18.80;;;8.00;76.90;;;;;;5041054;28;20261;-63
2023/01/29 11:08:07;;;;;;;28.20;18.47;;;8.10;77.10;;;;;;5042029;28;20262;-64
2023/01/29 11:10:45;;;;;;;32.07;18.63;;;8.10;76.60;;;;;;5034659;28;20199;-63
2023/01/29 11:13:14;;;;;;;26.10;17.07;;;8.10;77.00;;;;;;5038803;28;20206;-64
2023/01/29 11:15:41;;;;;;;32.57;17.87;;;8.20;77.20;;;;;;5037940;28;20214;-64
2023/01/29 11:18:14;;;;;;;27.53;18.07;;;8.30;75.90;;;;;;5036708;28;20249;-64
2023/01/29 11:20:43;;;;;;;30.17;18.07;;;8.40;76.10;;;;;;5027410;28;20215;-64
2023/01/29 11:23:39;;;;;;;23.70;16.37;;;8.40;76.00;;;;;;5033304;28;20217;-66
2023/01/29 11:26:11;;;;;;;26.03;16.23;;;8.40;75.30;;;;;;5034074;28;20250;-64
2023/01/29 11:28:43;;;;;;;27.07;16.93;;;8.50;76.10;;;;;;5031324;28;20227;-63
2023/01/29 11:31:18;;;;;;;24.97;17.50;;;8.60;76.20;;;;;;5038362;28;20195;-64
2023/01/29 11:33:45;;;;;;;32.87;17.70;;;8.60;75.90;;;;;;5034697;28;20230;-64
2023/01/29 11:36:39;;;;;;;25.40;17.73;;;8.70;76.10;;;;;;5039269;28;20218;-64
2023/01/29 11:39:16;;;;;;;27.20;17.03;;;8.90;75.50;;;;;;5036264;28;20277;-64
2023/01/29 11:41:51;;;;;;;28.70;19.17;;;8.90;75.30;;;;;;5040099;28;20191;-64
2023/01/29 11:44:20;;;;;;;29.50;17.80;;;9.00;75.00;;;;;;5011472;28;20207;-64
2023/01/29 11:46:48;;;;;;;29.33;18.37;;;9.10;75.60;;;;;;5036289;28;20290;-64
2023/01/29 11:49:29;;;;;;;26.23;18.10;;;9.10;74.80;;;;;;5034797;28;20197;-64
2023/01/29 11:52:00;;;;;;;27.07;17.80;;;9.10;74.30;;;;;;5036050;28;20200;-64
2023/01/29 11:54:35;;;;;;;27.40;17.37;;;9.20;74.20;;;;;;5038091;28;20200;-64
2023/01/29 11:57:03;;;;;;;23.80;15.83;;;9.20;74.80;;;;;;5043268;28;20695;-64
2023/01/29 11:59:48;;;;;;;26.50;16.37;;;9.20;74.20;;;;;;5036021;28;20689;-64
2023/01/29 12:02:27;;;;;;;23.20;16.47;;;9.20;73.30;;;;;;5035864;28;20194;-64
2023/01/29 12:04:57;;;;;;;26.67;17.00;;;9.10;74.00;;;;;;5036354;28;20196;-64
2023/01/29 12:07:25;;;;;;;24.43;16.13;;;9.20;74.90;;;;;;5036149;28;20542;-64
2023/01/29 12:09:57;;;;;;;26.57;16.67;;;9.30;73.50;;;;;;5033867;28;20581;-64
2023/01/29 12:12:43;;;;;;;24.63;16.40;;;9.30;72.90;;;;;;5035728;28;20209;-64
2023/01/29 12:15:15;;;;;;;23.17;16.03;;;9.40;72.30;;;;;;5030741;28;20520;-64
2023/01/29 12:17:49;;;;;;;24.97;15.30;;;9.40;72.70;;;;;;5035224;28;20212;-64
2023/01/29 12:20:24;;;;;;;23.33;16.50;;;9.40;72.30;;;;;;5030433;28;20456;-64
2023/01/29 12:23:02;;;;;;;27.37;17.43;;;9.50;73.20;;;;;;5035128;28;20205;-64
2023/01/29 12:25:49;;;;;;;25.17;16.80;;;9.60;73.10;;;;;;5041276;28;20202;-63
2023/01/29 12:28:27;;;;;;;26.83;15.77;;;9.70;72.30;;;;;;5030917;28;20204;-64
2023/01/29 12:31:23;;;;;;;25.43;15.70;;;9.80;71.70;;;;;;5037295;28;20653;-64
2023/01/29 12:33:55;;;;;;;23.67;15.43;;;9.80;72.20;;;;;;5034921;28;20633;-63
2023/01/29 12:36:30;;;;;;;24.63;16.60;;;9.90;72.60;;;;;;5035473;28;20200;-64
2023/01/29 12:38:58;;;;;;;24.23;16.10;;;10.00;72.70;;;;;;5033563;28;20217;-64
2023/01/29 12:41:29;;;;;;;25.03;14.70;;;10.10;72.40;;;;;;5039074;28;20200;-64
2023/01/29 12:44:09;;;;;;;22.00;15.53;;;10.20;72.00;;;;;;5030139;28;20549;-64
2023/01/29 12:46:44;;;;;;;23.07;15.00;;;10.30;70.60;;;;;;5032699;28;20200;-64
2023/01/29 12:49:18;;;;;;;20.63;14.27;;;10.20;70.60;;;;;;5039435;28;20210;-64
2023/01/29 12:52:12;;;;;;;25.10;14.90;;;10.30;70.90;;;;;;5038425;28;20192;-64
2023/01/29 12:55:01;;;;;;;21.53;13.93;;;10.30;71.00;;;;;;5036538;28;20205;-64
2023/01/29 12:57:46;;;;;;;23.57;13.30;;;10.40;70.70;;;;;;5034590;28;20228;-64
2023/01/29 13:00:19;;;;;;;19.30;12.53;;;10.40;70.10;;;;;;5023362;28;20206;-64
2023/01/29 13:02:58;;;;;;;18.73;11.80;;;10.40;69.90;;;;;;5036567;28;20240;-64
2023/01/29 13:05:40;;;;;;;15.30;11.33;;;10.40;68.90;;;;;;5038758;28;20202;-64
2023/01/29 13:08:20;;;;;;;12.13;9.47;;;10.40;66.90;;;;;;5033732;28;20205;-64
2023/01/29 13:10:52;;;;;;;14.27;10.10;;;10.30;66.70;;;;;;5033586;28;20201;-64
2023/01/29 13:13:42;;;;;;;13.07;9.17;;;10.20;66.50;;;;;;5042043;28;20239;-64
2023/01/29 13:16:14;;;;;;;18.80;11.40;;;10.20;66.10;;;;;;5026644;28;20227;-64
2023/01/29 13:18:58;;;;;;;18.30;11.37;;;10.20;66.50;;;;;;5038001;28;20286;-64
2023/01/29 13:21:37;;;;;;;16.60;10.77;;;10.10;67.00;;;;;;5037276;28;20209;-64
2023/01/29 13:24:12;;;;;;;14.67;10.30;;;10.20;67.70;;;;;;5042720;28;20542;-64
2023/01/29 13:26:43;;;;;;;13.50;10.10;;;10.10;65.30;;;;;;5039502;28;20522;-64
2023/01/29 13:29:37;;;;;;;15.63;10.60;;;10.10;65.60;;;;;;5042188;28;20307;-65
2023/01/29 13:32:04;;;;;;;18.37;11.60;;;10.00;65.40;;;;;;5037174;28;20252;-64
2023/01/29 13:34:35;;;;;;;14.90;10.27;;;9.90;65.90;;;;;;5037886;28;20210;-64
2023/01/29 13:37:15;;;;;;;15.33;10.27;;;9.90;66.20;;;;;;5021876;28;20205;-64